Time;durP1;ratioP1;P1;durP2;ratioP2;P2;SDS_P1;SDS_P2;PMS_P1;PMS_P2;Temp;Humidity;BMP_temperature;BMP_pressure;BME280_temperature;BME280_humidity;BME280_pressure;Samples;Min_cycle;Max_cycle;Signal;HPM_P1;HPM_P2
2021/07/08 00:00:52;;;;;;;755.67;692.70;;;;;;;-144.99;86.17;52248.34;5010254;28;20666;-59
2021/07/08 00:03:18;;;;;;;761.60;698.60;;;;;;;-144.99;86.31;52240.19;5009935;28;20646;-60
2021/07/08 00:05:45;;;;;;;756.77;693.77;;;;;;;-144.99;86.37;52268.72;5010063;28;20640;-59
2021/07/08 00:08:13;;;;;;;755.53;692.07;;;;;;;-144.99;86.34;52283.00;5009141;28;20645;-59
2021/07/08 00:10:43;;;;;;;760.50;697.27;;;;;;;-144.99;86.19;52276.88;5009118;28;21211;-60
2021/07/08 00:13:11;;;;;;;754.03;691.17;;;;;;;-144.99;86.05;52283.00;5010340;28;20626;-60
2021/07/08 00:15:38;;;;;;;762.20;698.30;;;;;;;-144.99;86.04;52285.03;5009495;28;20703;-59
2021/07/08 00:18:09;;;;;;;752.67;689.17;;;;;;;-144.99;86.00;52252.44;5017832;28;20621;-60
2021/07/08 00:20:37;;;;;;;760.53;696.83;;;;;;;-144.99;85.84;52309.50;5007881;28;20651;-60
2021/07/08 00:23:04;;;;;;;753.67;690.17;;;;;;;-144.99;85.90;52276.88;5020719;28;20629;-60
2021/07/08 00:25:32;;;;;;;754.50;690.83;;;;;;;-144.99;86.02;52293.19;5018298;28;20622;-60
2021/07/08 00:27:59;;;;;;;765.47;701.63;;;;;;;-144.99;86.22;52236.13;5009786;28;20632;-60
2021/07/08 00:30:28;;;;;;;766.37;703.00;;;;;;;-144.99;86.26;52256.50;5009908;28;21270;-60
2021/07/08 00:32:55;;;;;;;768.40;704.57;;;;;;;-144.99;86.45;52276.88;5009658;28;20975;-60
2021/07/08 00:35:22;;;;;;;762.30;698.57;;;;;;;-144.99;86.21;52268.72;5009194;28;21257;-60
2021/07/08 00:37:48;;;;;;;779.93;716.33;;;;;;;-144.99;86.24;52242.22;4996153;28;20709;-60
2021/07/08 00:40:16;;;;;;;778.40;714.20;;;;;;;-144.99;86.24;52260.56;5008619;28;20657;-61
2021/07/08 00:42:43;;;;;;;779.50;715.20;;;;;;;-144.99;86.28;52297.25;5009012;28;21214;-60
2021/07/08 00:45:12;;;;;;;776.07;712.20;;;;;;;-144.99;86.15;52268.72;5009704;28;20655;-60
2021/07/08 00:47:40;;;;;;;767.23;703.33;;;;;;;-144.99;85.88;52252.44;5009082;28;20610;-59
2021/07/08 00:50:10;;;;;;;793.33;729.50;;;;;;;-144.99;85.77;52246.31;5008745;28;20655;-61
2021/07/08 00:52:37;;;;;;;783.30;719.40;;;;;;;-144.99;85.70;52252.44;5011101;28;20617;-61
2021/07/08 00:55:05;;;;;;;770.90;706.73;;;;;;;-144.99;85.52;52260.56;5019609;28;20625;-62
2021/07/08 00:57:33;;;;;;;766.43;703.00;;;;;;;-144.99;85.44;52240.19;5008998;28;20632;-61
2021/07/08 01:00:00;;;;;;;766.73;703.30;;;;;;;-144.99;85.52;52268.72;5019144;28;20669;-61
2021/07/08 01:02:27;;;;;;;778.83;714.87;;;;;;;-144.99;85.47;52289.13;5012563;28;20630;-64
2021/07/08 01:04:55;;;;;;;779.73;715.90;;;;;;;-144.99;85.40;52276.88;5008482;28;20633;-63
2021/07/08 01:07:24;;;;;;;763.23;699.80;;;;;;;-144.99;85.31;52227.97;5010742;28;21092;-63
2021/07/08 01:09:52;;;;;;;768.20;704.77;;;;;;;-144.99;85.59;52264.66;5013314;28;20753;-63
2021/07/08 01:12:19;;;;;;;773.50;709.63;;;;;;;-144.99;85.33;52272.81;5012294;28;20622;-64
2021/07/08 01:14:46;;;;;;;779.00;715.47;;;;;;;-144.99;85.44;52223.88;5013092;28;20629;-59
2021/07/08 01:17:13;;;;;;;789.80;725.50;;;;;;;-144.99;85.59;52260.56;5016573;28;20658;-60
2021/07/08 01:19:42;;;;;;;775.33;711.50;;;;;;;-144.99;85.55;52295.22;5013046;28;20653;-60
2021/07/08 01:22:10;;;;;;;780.57;716.40;;;;;;;-144.99;85.53;52289.13;5024292;28;20735;-63
2021/07/08 01:24:36;;;;;;;770.80;707.17;;;;;;;-144.99;85.63;52276.88;5021587;28;20637;-62
2021/07/08 01:27:04;;;;;;;768.07;704.47;;;;;;;-144.99;85.51;52268.72;5012798;28;21198;-64
2021/07/08 01:29:31;;;;;;;756.40;692.77;;;;;;;-144.99;85.77;52260.56;5016890;28;20652;-64
2021/07/08 01:31:58;;;;;;;764.57;700.50;;;;;;;-144.99;86.22;52305.41;5013660;28;21011;-64
2021/07/08 01:34:25;;;;;;;761.33;697.60;;;;;;;-144.99;86.02;52289.13;5012123;28;20996;-64
2021/07/08 01:36:51;;;;;;;787.47;722.73;;;;;;;-144.99;86.23;52227.97;5011888;28;21246;-64
2021/07/08 01:39:19;;;;;;;772.83;708.43;;;;;;;-144.99;85.97;52227.97;5012570;28;20656;-64
2021/07/08 01:41:46;;;;;;;765.80;702.07;;;;;;;-144.99;85.93;52280.97;5024011;28;20624;-63
2021/07/08 01:44:13;;;;;;;759.47;695.57;;;;;;;-144.99;85.94;52250.38;5013300;28;20629;-64
2021/07/08 01:46:40;;;;;;;760.53;696.13;;;;;;;-144.99;85.92;52256.50;5012083;28;20648;-64
2021/07/08 01:49:07;;;;;;;778.00;713.90;;;;;;;-144.99;85.77;52268.72;5011930;28;21074;-64
2021/07/08 01:51:35;;;;;;;762.87;698.40;;;;;;;-144.99;85.96;52264.66;5011907;28;20648;-63
2021/07/08 01:54:05;;;;;;;761.07;696.70;;;;;;;-144.99;86.01;52256.50;5012810;28;20639;-65
2021/07/08 01:56:33;;;;;;;758.17;694.17;;;;;;;-144.99;86.32;52305.41;5025215;28;20664;-65
2021/07/08 01:59:00;;;;;;;757.23;693.27;;;;;;;-144.99;86.22;52297.25;5012146;28;20664;-64
2021/07/08 02:01:26;;;;;;;752.23;687.70;;;;;;;-144.99;86.46;52285.03;5012119;28;20633;-64
2021/07/08 02:03:53;;;;;;;766.93;702.53;;;;;;;-144.99;86.36;52264.66;5011718;28;20639;-64
2021/07/08 02:06:20;;;;;;;764.50;700.17;;;;;;;-144.99;86.28;52252.44;5012380;28;21178;-63
2021/07/08 02:08:47;;;;;;;787.90;723.03;;;;;;;-144.99;86.44;52317.66;5012293;28;21011;-63
2021/07/08 02:11:14;;;;;;;783.17;718.43;;;;;;;-144.99;86.58;52260.56;5012022;28;20625;-61
2021/07/08 02:13:43;;;;;;;792.60;727.73;;;;;;;-144.99;86.77;52291.16;5012507;28;20629;-61
2021/07/08 02:16:10;;;;;;;783.17;718.43;;;;;;;-144.99;86.61;52256.50;5011354;28;20669;-62
2021/07/08 02:18:37;;;;;;;809.47;744.43;;;;;;;-144.99;86.49;52280.97;5020834;28;20655;-62
2021/07/08 02:21:04;;;;;;;797.83;732.87;;;;;;;-144.99;86.51;52293.19;5018020;28;20624;-63
2021/07/08 02:23:32;;;;;;;786.27;721.77;;;;;;;-144.99;86.32;52256.50;5013387;28;20726;-64
2021/07/08 02:25:59;;;;;;;791.80;727.30;;;;;;;-144.99;86.39;52256.50;5015163;28;20621;-59
2021/07/08 02:28:26;;;;;;;796.83;732.00;;;;;;;-144.99;86.46;52297.25;5011860;28;20660;-59
2021/07/08 02:30:54;;;;;;;809.13;743.80;;;;;;;-144.99;86.39;52240.19;5011911;28;21234;-59
2021/07/08 02:33:21;;;;;;;804.40;739.50;;;;;;;-144.99;86.63;52285.03;5011629;28;20636;-60
2021/07/08 02:35:47;;;;;;;803.87;738.77;;;;;;;-144.99;86.44;52260.56;5010487;28;20669;-59
2021/07/08 02:38:14;;;;;;;773.60;709.10;;;;;;;-144.99;86.33;52301.34;5011357;28;21204;-59
2021/07/08 02:40:41;;;;;;;792.87;727.93;;;;;;;-144.99;86.62;52289.13;5010670;28;20657;-60
2021/07/08 02:43:10;;;;;;;789.80;724.67;;;;;;;-144.99;86.66;52285.03;5011499;28;20625;-59
2021/07/08 02:45:39;;;;;;;807.13;741.50;;;;;;;-144.99;86.67;52301.34;5011542;28;20660;-58
2021/07/08 02:48:08;;;;;;;793.30;728.30;;;;;;;-144.99;86.44;52252.44;5011152;28;20973;-58
2021/07/08 02:50:36;;;;;;;785.80;720.90;;;;;;;-144.99;86.59;52280.97;5010970;28;20689;-58
2021/07/08 02:53:03;;;;;;;794.93;729.97;;;;;;;-144.99;86.63;52276.88;5017541;28;20621;-59
2021/07/08 02:55:29;;;;;;;783.80;719.07;;;;;;;-144.99;86.62;52323.75;5018062;28;21013;-58
2021/07/08 02:57:58;;;;;;;797.50;732.70;;;;;;;-144.99;86.49;52280.97;5011890;28;20684;-59
2021/07/08 03:00:25;;;;;;;797.80;733.03;;;;;;;-144.99;86.64;52264.66;5025977;28;20656;-58
2021/07/08 03:02:53;;;;;;;781.53;717.07;;;;;;;-144.99;86.79;52285.03;5010691;28;20629;-58
2021/07/08 03:05:21;;;;;;;784.07;719.20;;;;;;;-144.99;86.89;52321.72;5010714;28;20640;-58
2021/07/08 03:07:47;;;;;;;774.00;709.40;;;;;;;-144.99;87.04;52293.19;5010573;28;20646;-58
2021/07/08 03:10:17;;;;;;;779.27;714.10;;;;;;;-144.99;87.13;52283.00;5010924;28;20688;-58
2021/07/08 03:12:43;;;;;;;768.43;704.03;;;;;;;-144.99;87.14;52293.19;5011004;28;20641;-60
2021/07/08 03:15:12;;;;;;;782.40;717.50;;;;;;;-144.99;86.97;52289.13;5012222;28;20636;-58
2021/07/08 03:17:39;;;;;;;768.47;704.27;;;;;;;-144.99;87.12;52297.25;5014114;28;20705;-58
2021/07/08 03:20:10;;;;;;;774.23;709.33;;;;;;;-144.99;87.13;52287.06;5007300;28;21216;-58
2021/07/08 03:22:38;;;;;;;765.73;701.60;;;;;;;-144.99;87.11;52280.97;5022203;28;20708;-58
2021/07/08 03:25:06;;;;;;;755.97;691.57;;;;;;;-144.99;87.20;52276.88;5015756;28;20637;-63
2021/07/08 03:27:33;;;;;;;754.93;690.93;;;;;;;-144.99;87.04;52285.03;5009813;28;20630;-62
2021/07/08 03:30:00;;;;;;;766.50;702.30;;;;;;;-144.99;87.11;52285.03;5015166;28;20649;-61
2021/07/08 03:32:26;;;;;;;770.40;706.10;;;;;;;-144.99;87.03;52307.47;5009839;28;20644;-63
2021/07/08 03:34:53;;;;;;;770.30;706.17;;;;;;;-144.99;87.18;52297.25;5010627;28;20629;-62
2021/07/08 03:37:19;;;;;;;766.83;702.83;;;;;;;-144.99;87.00;52293.19;5009607;28;20673;-61
2021/07/08 03:39:47;;;;;;;765.40;701.73;;;;;;;-144.99;87.07;52268.72;5014601;28;20656;-58
2021/07/08 03:42:14;;;;;;;770.57;706.93;;;;;;;-144.99;86.67;52276.88;5019370;28;20699;-58
2021/07/08 03:44:40;;;;;;;776.20;713.73;;;;;;;-144.99;86.89;52250.38;5011223;28;21073;-58
2021/07/08 03:47:07;;;;;;;763.70;700.97;;;;;;;-144.99;86.60;52307.47;5010223;28;20721;-58
2021/07/08 03:49:33;;;;;;;799.43;735.90;;;;;;;-144.99;86.63;52301.34;5010038;28;20668;-58
2021/07/08 03:52:00;;;;;;;787.27;724.07;;;;;;;-144.99;86.54;52260.56;5010660;28;20633;-58
2021/07/08 03:54:26;;;;;;;786.50;723.13;;;;;;;-144.99;86.54;52303.38;5020243;28;20610;-58
2021/07/08 03:56:54;;;;;;;799.83;736.53;;;;;;;-144.99;86.82;52278.91;5020587;28;20661;-58
2021/07/08 03:59:21;;;;;;;788.83;725.60;;;;;;;-144.99;86.84;52272.81;5009133;28;20995;-57
2021/07/08 04:01:47;;;;;;;778.83;715.67;;;;;;;-144.99;86.62;52285.03;5009751;28;20625;-57
2021/07/08 04:04:14;;;;;;;795.53;731.83;;;;;;;-144.99;86.62;52270.78;5009859;28;20787;-58
2021/07/08 04:06:40;;;;;;;776.93;713.37;;;;;;;-144.99;86.75;52293.19;5009974;28;20629;-58
2021/07/08 04:09:07;;;;;;;777.97;715.20;;;;;;;-144.99;87.11;52260.56;5009575;28;20661;-58
2021/07/08 04:11:34;;;;;;;782.53;720.00;;;;;;;-144.99;87.51;52264.66;5009546;28;20630;-59
2021/07/08 04:14:02;;;;;;;790.87;728.73;;;;;;;-144.99;87.51;52262.63;5009791;28;20633;-59
2021/07/08 04:16:29;;;;;;;807.00;744.47;;;;;;;-144.99;87.58;52280.97;5010940;28;21004;-62
2021/07/08 04:18:55;;;;;;;817.50;754.17;;;;;;;-144.99;87.63;52309.50;5016506;28;20661;-63
2021/07/08 04:21:22;;;;;;;808.03;744.97;;;;;;;-144.99;87.48;52280.97;5015745;28;20620;-61
2021/07/08 04:23:48;;;;;;;794.83;732.77;;;;;;;-144.99;87.53;52280.97;5018720;28;20974;-61
2021/07/08 04:26:15;;;;;;;818.47;755.23;;;;;;;-144.99;87.25;52248.34;5013435;28;20721;-61
2021/07/08 04:28:42;;;;;;;805.83;743.73;;;;;;;-144.99;87.33;52246.31;5008972;28;20633;-61
2021/07/08 04:31:14;;;;;;;830.60;767.63;;;;;;;-144.99;87.30;52280.97;5010387;28;21471;-61
2021/07/08 04:33:41;;;;;;;812.70;750.33;;;;;;;-144.99;87.25;52264.66;5009375;28;20653;-61
2021/07/08 04:36:11;;;;;;;791.43;729.83;;;;;;;-144.99;87.07;52270.78;5009021;28;21131;-62
2021/07/08 04:38:37;;;;;;;792.23;730.87;;;;;;;-144.99;86.98;52264.66;5009311;28;20798;-61
2021/07/08 04:41:04;;;;;;;811.43;749.20;;;;;;;-144.99;86.89;52276.88;5009664;28;20633;-62
2021/07/08 04:43:31;;;;;;;828.07;764.97;;;;;;;-144.99;86.90;52276.88;5009829;28;20629;-61
2021/07/08 04:45:57;;;;;;;825.10;762.37;;;;;;;-144.99;87.04;52295.22;5009091;28;21181;-61
2021/07/08 04:48:25;;;;;;;839.33;775.80;;;;;;;-144.99;86.91;52256.50;5009113;28;20633;-61
2021/07/08 04:50:52;;;;;;;842.70;779.37;;;;;;;-144.99;86.65;52238.16;5007992;28;21001;-62
2021/07/08 04:53:19;;;;;;;826.27;763.60;;;;;;;-144.99;86.58;52252.44;5018128;28;20633;-61
2021/07/08 04:55:46;;;;;;;812.30;750.07;;;;;;;-144.99;86.28;52262.63;5001416;28;21241;-61
2021/07/08 04:58:12;;;;;;;778.47;717.70;;;;;;;-144.99;86.01;52291.16;5008885;28;20663;-62
2021/07/08 05:00:39;;;;;;;825.73;763.23;;;;;;;-144.99;86.02;52248.34;5013971;28;20647;-61
2021/07/08 05:03:07;;;;;;;794.43;733.43;;;;;;;-144.99;85.92;52248.34;4995748;28;20630;-65
2021/07/08 05:05:35;;;;;;;782.40;721.57;;;;;;;-144.99;85.96;52252.44;5009097;28;20713;-64
2021/07/08 05:08:02;;;;;;;766.23;706.07;;;;;;;-144.99;86.17;52262.63;5009950;28;20668;-65
2021/07/08 05:10:28;;;;;;;792.57;731.47;;;;;;;-144.99;86.04;52260.56;5008834;28;21006;-66
2021/07/08 05:12:55;;;;;;;714.07;657.23;;;;;;;-144.99;85.74;52264.66;5008872;28;21221;-65
2021/07/08 05:15:22;;;;;;;731.60;673.20;;;;;;;-144.99;85.80;52287.06;5009210;28;20961;-64
2021/07/08 05:17:49;;;;;;;667.80;613.33;;;;;;;-144.99;85.42;52232.03;3974283;28;10000739;-65
2021/07/08 05:20:17;;;;;;;691.10;634.73;;;;;;;-144.99;85.14;52219.81;5006301;28;20687;-65
2021/07/08 05:22:47;;;;;;;678.50;623.40;;;;;;;-144.99;85.05;52254.47;5006091;28;20637;-66
2021/07/08 05:25:16;;;;;;;596.72;546.35;;;;;;;-144.99;84.59;52248.34;5006113;28;20635;-66
2021/07/08 05:27:42;;;;;;;636.63;584.30;;;;;;;-144.99;84.37;52262.63;5006418;28;20541;-65
2021/07/08 05:30:10;;;;;;;633.75;582.05;;;;;;;-144.99;84.43;52293.19;5011982;28;20661;-65
2021/07/08 05:32:37;;;;;;;722.50;665.47;;;;;;;-144.99;84.27;52236.13;5005363;28;20216;-68
2021/07/08 05:35:05;;;;;;;666.47;612.38;;;;;;;-144.99;84.13;52256.50;5004729;28;21174;-65
2021/07/08 05:37:31;;;;;;;725.83;668.67;;;;;;;-144.99;84.21;52260.56;5005343;28;20246;-66
2021/07/08 05:39:59;;;;;;;634.57;581.70;;;;;;;-144.99;84.15;52248.34;5011028;28;20654;-65
2021/07/08 05:42:26;;;;;;;659.10;605.60;;;;;;;-144.99;83.82;52238.16;5012515;28;20634;-67
2021/07/08 05:44:54;;;;;;;710.60;654.83;;;;;;;-144.99;83.80;52262.63;5005772;28;20649;-66
2021/07/08 05:47:21;;;;;;;684.87;630.27;;;;;;;-144.99;83.59;52232.03;5005499;28;20667;-67
2021/07/08 05:49:47;;;;;;;711.77;655.77;;;;;;;-144.99;83.76;52211.66;5004825;28;20670;-66
2021/07/08 05:52:14;;;;;;;732.53;675.40;;;;;;;-144.99;83.61;52256.50;4999946;28;20638;-66
2021/07/08 05:54:40;;;;;;;678.40;623.87;;;;;;;-144.99;83.69;52250.38;5020324;28;20638;-66
2021/07/08 05:57:08;;;;;;;626.83;574.90;;;;;;;-144.99;83.58;52227.97;5018017;28;20672;-66
2021/07/08 05:59:35;;;;;;;658.97;605.47;;;;;;;-144.99;83.45;52232.03;5007943;28;20671;-65
2021/07/08 06:02:04;;;;;;;582.60;533.37;;;;;;;-144.99;83.40;52199.44;5007871;28;20638;-65
2021/07/08 06:04:31;;;;;;;678.40;624.50;;;;;;;-144.99;83.14;52219.81;5008546;28;21232;-65
2021/07/08 06:06:57;;;;;;;690.50;635.93;;;;;;;-144.99;82.76;52213.69;5008645;28;20631;-65
2021/07/08 06:09:24;;;;;;;681.97;627.73;;;;;;;-144.99;82.53;52264.66;5009011;28;20991;-69
2021/07/08 06:11:50;;;;;;;723.83;667.00;;;;;;;-144.99;82.20;52244.28;5001489;28;20632;-66
2021/07/08 06:14:18;;;;;;;666.63;614.37;;;;;;;-144.99;81.51;52217.78;5002604;28;20659;-66
2021/07/08 06:16:45;;;;;;;588.67;539.10;;;;;;;-144.99;81.04;52221.84;5011437;28;21243;-66
2021/07/08 06:19:11;;;;;;;489.87;444.63;;;;;;;-144.99;80.59;52223.88;5013202;28;20890;-66
2021/07/08 06:21:38;;;;;;;520.87;473.87;;;;;;;-144.99;80.36;52203.50;5014236;28;20628;-66
2021/07/08 06:24:07;;;;;;;480.93;437.10;;;;;;;-144.99;80.45;52227.97;5020698;28;20987;-66
2021/07/08 06:26:34;;;;;;;459.37;416.47;;;;;;;-144.99;80.63;52215.75;5009745;28;20640;-66
2021/07/08 06:29:01;;;;;;;469.83;427.00;;;;;;;-144.99;80.39;52244.28;5008089;28;20656;-66
2021/07/08 06:31:28;;;;;;;450.43;408.77;;;;;;;-144.99;80.22;52232.03;5008538;28;21158;-66
2021/07/08 06:33:55;;;;;;;426.83;386.23;;;;;;;-144.99;80.58;52256.50;5008151;28;20639;-66
2021/07/08 06:36:22;;;;;;;430.33;389.77;;;;;;;-144.99;80.64;52276.88;5007591;28;20635;-66
2021/07/08 06:38:48;;;;;;;431.90;391.10;;;;;;;-144.99;81.41;52268.72;5008017;28;20675;-65
2021/07/08 06:41:15;;;;;;;416.90;377.40;;;;;;;-144.99;81.41;52248.34;4996769;28;20639;-65
2021/07/08 06:43:41;;;;;;;843.30;781.07;;;;;;;-144.99;81.46;52227.97;5008369;28;20628;-66
2021/07/08 06:46:08;;;;;;;806.77;746.67;;;;;;;-144.99;81.40;52248.34;5006819;28;20678;-66
2021/07/08 06:48:36;;;;;;;754.67;697.43;;;;;;;-144.99;81.37;52240.19;5022059;28;20620;-67
2021/07/08 06:51:02;;;;;;;719.27;663.97;;;;;;;-144.99;80.83;52256.50;5007519;28;20632;-65
2021/07/08 06:53:29;;;;;;;631.63;579.57;;;;;;;-144.99;80.46;52223.88;5015476;28;20630;-66
2021/07/08 06:55:56;;;;;;;510.47;463.80;;;;;;;-144.99;80.39;52211.66;5007776;28;20628;-66
2021/07/08 06:58:22;;;;;;;484.73;439.67;;;;;;;-144.99;80.39;52260.56;5008576;28;20675;-66
2021/07/08 07:00:49;;;;;;;443.80;400.67;;;;;;;-144.99;80.60;52248.34;5021983;28;20687;-66
2021/07/08 07:03:15;;;;;;;532.33;485.27;;;;;;;-144.99;80.63;52252.44;5008081;28;20643;-66
2021/07/08 07:05:43;;;;;;;510.40;465.23;;;;;;;-144.99;80.94;52236.13;5007233;28;20643;-65
2021/07/08 07:08:10;;;;;;;501.73;456.43;;;;;;;-144.99;80.97;52223.88;5007733;28;20655;-65
2021/07/08 07:10:36;;;;;;;434.50;393.40;;;;;;;-144.99;80.98;52260.56;5007443;28;20660;-65
2021/07/08 07:13:05;;;;;;;443.97;403.67;;;;;;;-144.99;81.08;52248.34;5007641;28;20668;-65
2021/07/08 07:15:31;;;;;;;434.35;392.23;;;;;;;-144.99;80.85;52232.03;5007736;28;20639;-66
2021/07/08 07:17:58;;;;;;;432.17;390.53;;;;;;;-144.99;80.86;52260.56;5011219;28;20235;-65
2021/07/08 07:20:26;;;;;;;470.33;412.73;;;;;;;-144.99;80.64;52248.34;5006726;28;20689;-65
2021/07/08 07:22:54;;;;;;;483.13;408.63;;;;;;;-144.99;79.62;52223.88;5022274;28;20631;-66
2021/07/08 07:25:23;;;;;;;467.67;410.17;;;;;;;-144.99;79.44;52191.28;5009844;28;20643;-67
2021/07/08 07:27:51;;;;;;;455.30;402.07;;;;;;;-144.99;78.92;52240.19;5008254;28;20621;-65
2021/07/08 07:30:20;;;;;;;454.07;395.33;;;;;;;-144.99;78.87;52236.13;5012407;28;21252;-65
2021/07/08 07:32:47;;;;;;;449.20;398.42;;;;;;;-144.99;78.34;52256.50;5007420;28;20633;-65
2021/07/08 07:35:14;;;;;;;459.67;408.20;;;;;;;-144.99;77.92;52227.97;5007438;28;20210;-65
2021/07/08 07:37:41;;;;;;;446.50;397.93;;;;;;;-144.99;78.11;52285.03;5007758;28;20669;-65
2021/07/08 07:40:11;;;;;;;443.60;394.50;;;;;;;-144.99;78.01;52295.22;5017043;28;20652;-65
2021/07/08 07:42:38;;;;;;;446.80;392.03;;;;;;;-144.99;78.94;52256.50;5014942;28;21277;-65
2021/07/08 07:45:06;;;;;;;450.33;391.30;;;;;;;-144.99;79.92;52289.13;5008501;28;20643;-65
2021/07/08 07:47:33;;;;;;;447.85;384.17;;;;;;;-144.99;79.99;52248.34;5007528;28;20209;-65
2021/07/08 07:50:01;;;;;;;457.27;389.90;;;;;;;-144.99;81.62;52260.56;5007954;28;20238;-66
2021/07/08 07:52:29;;;;;;;451.98;388.58;;;;;;;-144.99;81.77;52256.50;5007176;28;20679;-66
2021/07/08 07:54:55;;;;;;;472.85;378.77;;;;;;;-144.99;82.22;52278.91;5007472;28;20216;-64
2021/07/08 07:57:23;;;;;;;460.80;373.70;;;;;;;-144.99;82.79;52219.81;5007322;28;20248;-66
2021/07/08 07:59:50;;;;;;;471.75;369.13;;;;;;;-144.99;83.02;52283.00;5006529;28;20715;-64
2021/07/08 08:02:17;;;;;;;470.03;367.37;;;;;;;-144.99;83.46;52236.13;5006220;28;20210;-65
2021/07/08 08:04:46;;;;;;;473.67;368.23;;;;;;;-144.99;83.76;52262.63;5006315;28;20636;-65
2021/07/08 08:09:58;;;;;;;479.30;377.13;;;;;;;-144.99;84.02;52219.81;5005800;28;21120;-66
2021/07/08 08:12:26;;;;;;;384.20;342.83;;;;;;;-144.99;83.55;52207.59;5006698;28;20629;-66
2021/07/08 08:14:54;;;;;;;373.00;334.97;;;;;;;-144.99;83.00;52195.34;5007806;28;20637;-66
2021/07/08 08:17:21;;;;;;;400.20;360.30;;;;;;;-144.99;82.51;52203.50;5014369;28;21054;-65
2021/07/08 08:19:47;;;;;;;414.53;374.40;;;;;;;-144.99;81.86;52170.91;5006388;28;20668;-66
2021/07/08 08:22:17;;;;;;;449.87;407.83;;;;;;;-144.99;81.15;52162.75;5010013;28;20618;-66
2021/07/08 08:24:44;;;;;;;536.33;491.97;;;;;;;-144.99;80.31;52203.50;5018269;28;20751;-66
2021/07/08 08:27:10;;;;;;;483.80;442.27;;;;;;;-144.99;78.31;52179.06;5006760;28;20641;-66
2021/07/08 08:29:40;;;;;;;423.37;386.20;;;;;;;-144.99;76.84;52170.91;5006994;28;20991;-66
2021/07/08 08:32:08;;;;;;;537.13;494.53;;;;;;;-144.99;76.20;52174.97;5005774;28;21345;-66
2021/07/08 08:34:35;;;;;;;484.30;441.93;;;;;;;-144.99;75.71;52185.16;5006332;28;20634;-66
2021/07/08 08:37:01;;;;;;;462.20;420.40;;;;;;;-144.99;75.65;52164.78;5006354;28;21085;-66
2021/07/08 08:39:28;;;;;;;460.03;418.43;;;;;;;-144.99;75.22;52166.81;5005671;28;21217;-66
2021/07/08 08:41:54;;;;;;;455.57;414.90;;;;;;;-144.99;74.15;52172.94;5005834;28;20639;-66
2021/07/08 08:44:21;;;;;;;458.50;416.83;;;;;;;-144.99;72.38;52187.19;5006091;28;20633;-66
2021/07/08 08:46:51;;;;;;;465.00;422.97;;;;;;;-144.99;72.09;52195.34;5006884;28;20643;-65
2021/07/08 08:49:18;;;;;;;456.90;414.07;;;;;;;-144.99;70.74;52203.50;5007351;28;20670;-67
2021/07/08 08:51:45;;;;;;;564.07;515.60;;;;;;;-144.99;70.53;52138.28;5005722;28;20629;-66
2021/07/08 08:54:13;;;;;;;495.60;451.27;;;;;;;-144.99;71.23;52166.81;5005662;28;20707;-67
2021/07/08 08:56:40;;;;;;;543.20;496.50;;;;;;;-144.99;70.17;52158.66;5000375;28;20632;-67
2021/07/08 08:59:07;;;;;;;697.97;644.13;;;;;;;-144.99;69.93;52158.66;5012106;28;21154;-66
2021/07/08 09:01:35;;;;;;;625.60;573.40;;;;;;;-144.99;68.08;52168.84;5013870;28;20640;-66
2021/07/08 09:04:03;;;;;;;628.77;576.97;;;;;;;-144.99;65.82;52166.81;5006042;28;20938;-66
2021/07/08 09:06:36;;;;;;;768.03;709.80;;;;;;;-144.99;65.49;52183.13;5005549;28;20644;-67
2021/07/08 09:09:09;;;;;;;759.43;702.10;;;;;;;-144.99;65.59;52166.81;5005796;28;20746;-68
2021/07/08 09:11:36;;;;;;;694.77;639.60;;;;;;;-144.99;65.27;52160.72;5005556;28;20660;-67
2021/07/08 09:14:07;;;;;;;895.90;831.03;;;;;;;-144.99;64.85;52174.97;5006098;28;20746;-67
2021/07/08 09:16:35;;;;;;;887.83;824.87;;;;;;;-144.99;65.51;52162.75;5008161;28;21005;-66
2021/07/08 09:19:09;;;;;;;902.10;839.03;;;;;;;-144.99;65.42;52174.97;5007120;28;20696;-65
2021/07/08 09:21:38;;;;;;;880.63;818.57;;;;;;;-144.99;64.39;52170.91;5014918;28;21110;-67
2021/07/08 09:24:12;;;;;;;903.00;834.97;;;;;;;-144.99;63.90;52130.13;5001392;28;20614;-66
2021/07/08 09:26:41;;;;;;;922.23;851.40;;;;;;;-144.99;61.99;52150.53;5006648;28;20728;-67
2021/07/08 09:29:10;;;;;;;967.87;893.80;;;;;;;-144.99;60.88;52117.91;5009301;28;20661;-67
2021/07/08 09:31:37;;;;;;;1102.07;999.90;;;;;;;-144.99;60.46;52138.28;5013595;28;20645;-67
2021/07/08 09:34:17;;;;;;;1142.20;999.90;;;;;;;-144.99;59.52;52121.97;5009414;28;20619;-68
2021/07/08 09:36:44;;;;;;;1239.47;999.90;;;;;;;-144.99;58.08;52113.84;5008732;28;20652;-67
2021/07/08 09:39:12;;;;;;;1261.23;999.90;;;;;;;-144.99;58.13;52138.28;5016839;28;21094;-66
2021/07/08 09:41:50;;;;;;;1318.63;999.90;;;;;;;-144.99;56.66;52154.59;5014235;28;20661;-67
2021/07/08 09:44:25;;;;;;;1325.27;999.90;;;;;;;-144.99;57.13;52121.97;5008857;28;20628;-67
2021/07/08 09:46:53;;;;;;;1333.37;999.90;;;;;;;-144.99;56.96;52101.59;5009267;28;20636;-66
2021/07/08 09:49:21;;;;;;;1361.50;999.90;;;;;;;-144.99;55.33;52138.28;5008922;28;20753;-66
2021/07/08 09:51:48;;;;;;;1265.40;999.90;;;;;;;-144.99;54.14;52146.44;5008713;28;21213;-66
2021/07/08 09:54:18;;;;;;;1277.83;999.90;;;;;;;-144.99;55.50;52113.84;5010747;28;20630;-67
2021/07/08 09:56:48;;;;;;;1321.13;999.90;;;;;;;-144.99;55.04;52113.84;5012643;28;20804;-66
2021/07/08 09:59:16;;;;;;;1351.23;999.90;;;;;;;-144.99;55.05;52121.97;5008745;28;21293;-67
2021/07/08 10:01:45;;;;;;;1377.87;999.90;;;;;;;-144.99;52.08;52093.44;5009188;28;21236;-67
2021/07/08 10:04:12;;;;;;;1334.43;999.90;;;;;;;-144.99;52.19;52105.69;5009254;28;21041;-66
2021/07/08 10:06:41;;;;;;;1407.67;999.90;;;;;;;-144.99;51.99;52081.22;5008827;28;20751;-67
2021/07/08 10:09:07;;;;;;;1438.30;999.90;;;;;;;-144.99;51.83;52113.84;5009275;28;21022;-69
2021/07/08 10:11:35;;;;;;;1399.20;999.90;;;;;;;-144.99;52.06;52069.00;5011125;28;20640;-67
2021/07/08 10:14:03;;;;;;;1304.83;999.90;;;;;;;-144.99;51.95;52081.22;5010656;28;20690;-67
2021/07/08 10:16:36;;;;;;;1344.60;999.90;;;;;;;-144.99;52.12;52069.00;5012573;28;20727;-66
2021/07/08 10:19:05;;;;;;;1416.10;999.90;;;;;;;-144.99;51.52;52091.41;5016503;28;21226;-68
2021/07/08 10:21:32;;;;;;;1397.40;999.90;;;;;;;-144.99;50.74;52077.16;5019443;28;21147;-66
2021/07/08 10:24:01;;;;;;;1425.93;999.90;;;;;;;-144.99;50.56;52069.00;5021842;28;20639;-66
2021/07/08 10:26:28;;;;;;;1444.73;999.90;;;;;;;-144.99;51.03;52069.00;5008907;28;20629;-67
2021/07/08 10:28:57;;;;;;;1458.40;999.90;;;;;;;-144.99;51.58;52075.09;5008704;28;20628;-67
2021/07/08 10:31:25;;;;;;;1455.43;999.90;;;;;;;-144.99;50.62;52081.22;5009686;28;21194;-66
2021/07/08 10:34:13;;;;;;;1463.23;999.90;;;;;;;-144.99;50.09;52048.63;5008737;28;20640;-66
2021/07/08 10:36:41;;;;;;;1456.73;999.90;;;;;;;-144.99;49.68;52060.84;5006548;28;20629;-67
2021/07/08 10:39:10;;;;;;;1459.87;999.90;;;;;;;-144.99;48.80;52064.91;5003950;28;21021;-67
2021/07/08 10:41:45;;;;;;;1470.97;999.90;;;;;;;-144.99;48.80;52073.06;5008201;28;20677;-67
2021/07/08 10:44:47;;;;;;;1433.70;999.90;;;;;;;-144.99;49.76;52077.16;4995356;28;20624;-66
2021/07/08 10:47:37;;;;;;;1336.13;999.90;;;;;;;-144.99;49.53;52093.44;4989233;28;20639;-67
2021/07/08 10:50:06;;;;;;;1302.67;999.90;;;;;;;-144.99;49.74;52073.06;5007411;28;20776;-66